sensor_id;sensor_type;location;lat;lon;timestamp;pressure;altitude;pressure_sealevel;temperature;humidity
36304;BME280;22335;49.800;8.596;2022-11-06T00:02:48;100903.00;;;12.05;56.84
36304;BME280;22335;49.800;8.596;2022-11-06T00:09:33;100903.38;;;12.28;56.65
36304;BME280;22335;49.800;8.596;2022-11-06T00:16:22;100906.84;;;12.43;56.45
36304;BME280;22335;49.800;8.596;2022-11-06T00:23:07;100912.88;;;12.75;55.88
36304;BME280;22335;49.800;8.596;2022-11-06T00:29:52;100883.81;;;12.74;55.84
36304;BME280;22335;49.800;8.596;2022-11-06T00:36:40;100870.84;;;12.50;55.89
36304;BME280;22335;49.800;8.596;2022-11-06T00:43:26;100861.94;;;12.29;56.30
36304;BME280;22335;49.800;8.596;2022-11-06T00:50:11;100860.91;;;12.20;56.47
36304;BME280;22335;49.800;8.596;2022-11-06T00:57:00;100852.53;;;12.06;56.62
36304;BME280;22335;49.800;8.596;2022-11-06T01:03:51;100845.44;;;12.00;56.64
36304;BME280;22335;49.800;8.596;2022-11-06T01:10:37;100839.22;;;11.89;56.75
36304;BME280;22335;49.800;8.596;2022-11-06T01:17:26;100824.16;;;11.76;57.10
36304;BME280;22335;49.800;8.596;2022-11-06T01:24:15;100831.34;;;11.67;57.15
36304;BME280;22335;49.800;8.596;2022-11-06T01:31:03;100822.63;;;11.60;57.30
36304;BME280;22335;49.800;8.596;2022-11-06T01:37:51;100825.69;;;11.53;57.48
36304;BME280;22335;49.800;8.596;2022-11-06T01:52:10;100745.72;;;10.97;57.59
36304;BME280;22335;49.800;8.596;2022-11-06T01:58:59;100806.50;;;11.53;57.76
36304;BME280;22335;49.800;8.596;2022-11-06T02:05:46;100816.66;;;11.48;57.74
36304;BME280;22335;49.800;8.596;2022-11-06T02:12:41;100795.94;;;11.37;57.90
36304;BME280;22335;49.800;8.596;2022-11-06T02:19:51;100784.19;;;11.26;58.10
36304;BME280;22335;49.800;8.596;2022-11-06T02:27:01;100794.81;;;11.38;58.01
36304;BME280;22335;49.800;8.596;2022-11-06T02:33:55;100795.31;;;11.45;57.84
36304;BME280;22335;49.800;8.596;2022-11-06T02:40:49;100784.69;;;11.38;57.96
36304;BME280;22335;49.800;8.596;2022-11-06T02:47:40;100794.19;;;11.51;57.84
36304;BME280;22335;49.800;8.596;2022-11-06T02:54:28;100769.78;;;11.54;57.60
36304;BME280;22335;49.800;8.596;2022-11-06T03:01:22;100784.53;;;11.64;57.59
36304;BME280;22335;49.800;8.596;2022-11-06T03:08:20;100769.53;;;11.56;57.60
36304;BME280;22335;49.800;8.596;2022-11-06T03:15:15;100795.72;;;11.72;57.42
36304;BME280;22335;49.800;8.596;2022-11-06T03:22:08;100793.84;;;11.68;57.49
36304;BME280;22335;49.800;8.596;2022-11-06T03:29:02;100763.06;;;11.76;57.27
36304;BME280;22335;49.800;8.596;2022-11-06T03:35:56;100772.16;;;11.71;57.32
36304;BME280;22335;49.800;8.596;2022-11-06T03:42:48;100769.16;;;11.68;57.41
36304;BME280;22335;49.800;8.596;2022-11-06T04:03:30;100754.72;;;11.96;56.58
36304;BME280;22335;49.800;8.596;2022-11-06T04:10:18;100743.13;;;12.05;56.32
36304;BME280;22335;49.800;8.596;2022-11-06T04:17:16;100746.50;;;12.26;56.07
36304;BME280;22335;49.800;8.596;2022-11-06T04:24:22;100748.66;;;12.34;55.91
36304;BME280;22335;49.800;8.596;2022-11-06T04:31:30;100743.59;;;12.46;55.47
36304;BME280;22335;49.800;8.596;2022-11-06T04:38:25;100750.66;;;12.52;55.33
36304;BME280;22335;49.800;8.596;2022-11-06T04:45:23;100748.75;;;12.48;55.02
36304;BME280;22335;49.800;8.596;2022-11-06T04:52:14;100755.31;;;12.52;54.72
36304;BME280;22335;49.800;8.596;2022-11-06T04:59:02;100742.75;;;12.16;55.06
36304;BME280;22335;49.800;8.596;2022-11-06T05:05:51;100748.84;;;11.74;55.49
36304;BME280;22335;49.800;8.596;2022-11-06T05:12:38;100776.06;;;11.60;56.12
36304;BME280;22335;49.800;8.596;2022-11-06T05:19:28;100772.59;;;11.44;56.13
36304;BME280;22335;49.800;8.596;2022-11-06T05:26:16;100763.09;;;11.31;56.57
36304;BME280;22335;49.800;8.596;2022-11-06T05:33:01;100722.97;;;11.01;56.76
36304;BME280;22335;49.800;8.596;2022-11-06T05:39:47;100743.75;;;11.13;56.89
36304;BME280;22335;49.800;8.596;2022-11-06T05:46:35;100721.84;;;11.13;57.07
36304;BME280;22335;49.800;8.596;2022-11-06T05:53:30;100745.50;;;11.43;56.23
36304;BME280;22335;49.800;8.596;2022-11-06T06:00:16;100717.97;;;11.19;56.91
36304;BME280;22335;49.800;8.596;2022-11-06T06:07:04;100701.03;;;11.12;57.06
36304;BME280;22335;49.800;8.596;2022-11-06T06:13:50;100685.41;;;11.17;57.04
36304;BME280;22335;49.800;8.596;2022-11-06T06:20:36;100688.59;;;11.29;56.96
36304;BME280;22335;49.800;8.596;2022-11-06T06:27:24;100704.28;;;11.58;56.73
36304;BME280;22335;49.800;8.596;2022-11-06T06:34:11;100682.44;;;11.82;56.47
36304;BME280;22335;49.800;8.596;2022-11-06T06:41:00;100654.47;;;11.90;56.18
36304;BME280;22335;49.800;8.596;2022-11-06T06:47:48;100627.19;;;12.04;55.83
36304;BME280;22335;49.800;8.596;2022-11-06T06:54:33;100635.25;;;12.19;55.60
36304;BME280;22335;49.800;8.596;2022-11-06T07:01:19;100548.69;;;11.89;55.32
36304;BME280;22335;49.800;8.596;2022-11-06T07:08:07;100603.50;;;12.37;55.30
36304;BME280;22335;49.800;8.596;2022-11-06T07:14:53;100613.16;;;12.54;55.13
36304;BME280;22335;49.800;8.596;2022-11-06T07:21:39;100615.63;;;12.55;54.96
36304;BME280;22335;49.800;8.596;2022-11-06T07:28:27;100619.84;;;12.66;55.13
36304;BME280;22335;49.800;8.596;2022-11-06T07:35:12;100607.41;;;12.74;54.93
36304;BME280;22335;49.800;8.596;2022-11-06T07:41:58;100610.16;;;12.93;55.11
36304;BME280;22335;49.800;8.596;2022-11-06T07:48:51;100598.22;;;13.03;54.80
36304;BME280;22335;49.800;8.596;2022-11-06T07:55:37;100600.91;;;13.08;54.87
36304;BME280;22335;49.800;8.596;2022-11-06T08:02:23;100600.00;;;13.12;54.93
36304;BME280;22335;49.800;8.596;2022-11-06T08:09:11;100608.81;;;13.09;54.85
36304;BME280;22335;49.800;8.596;2022-11-06T08:15:57;100654.84;;;13.18;54.83
36304;BME280;22335;49.800;8.596;2022-11-06T08:22:43;100638.91;;;13.01;55.07
36304;BME280;22335;49.800;8.596;2022-11-06T08:29:31;100642.31;;;12.92;55.41
36304;BME280;22335;49.800;8.596;2022-11-06T08:36:22;100648.53;;;12.98;55.34
36304;BME280;22335;49.800;8.596;2022-11-06T08:43:08;100640.97;;;13.09;55.40
36304;BME280;22335;49.800;8.596;2022-11-06T08:49:57;100626.03;;;13.15;55.36
36304;BME280;22335;49.800;8.596;2022-11-06T08:56:43;100622.91;;;13.22;55.20
36304;BME280;22335;49.800;8.596;2022-11-06T09:03:29;100604.44;;;13.08;55.36
36304;BME280;22335;49.800;8.596;2022-11-06T09:10:17;100581.53;;;12.80;55.97
36304;BME280;22335;49.800;8.596;2022-11-06T09:17:02;100593.41;;;12.95;56.09
36304;BME280;22335;49.800;8.596;2022-11-06T09:23:48;100581.25;;;13.01;55.97
36304;BME280;22335;49.800;8.596;2022-11-06T09:30:36;100565.06;;;12.99;56.31
36304;BME280;22335;49.800;8.596;2022-11-06T09:37:22;100559.09;;;13.11;56.23
36304;BME280;22335;49.800;8.596;2022-11-06T09:44:20;100537.13;;;13.30;56.21
36304;BME280;22335;49.800;8.596;2022-11-06T09:51:30;100526.19;;;13.57;56.02
36304;BME280;22335;49.800;8.596;2022-11-06T09:58:21;100516.66;;;13.82;55.77
36304;BME280;22335;49.800;8.596;2022-11-06T10:05:13;100510.97;;;14.06;55.67
36304;BME280;22335;49.800;8.596;2022-11-06T10:12:12;100474.16;;;14.16;55.41
36304;BME280;22335;49.800;8.596;2022-11-06T10:19:09;100454.09;;;14.16;55.14
36304;BME280;22335;49.800;8.596;2022-11-06T10:26:08;100432.72;;;14.13;55.33
36304;BME280;22335;49.800;8.596;2022-11-06T10:33:14;100434.72;;;14.21;55.41
36304;BME280;22335;49.800;8.596;2022-11-06T10:40:16;100430.88;;;14.44;55.06
36304;BME280;22335;49.800;8.596;2022-11-06T10:47:08;100416.91;;;14.55;54.65
36304;BME280;22335;49.800;8.596;2022-11-06T10:54:07;100404.38;;;14.71;54.15
36304;BME280;22335;49.800;8.596;2022-11-06T11:01:04;100404.69;;;14.92;53.93
36304;BME280;22335;49.800;8.596;2022-11-06T11:07:52;100381.22;;;14.94;53.77
36304;BME280;22335;49.800;8.596;2022-11-06T11:14:40;100380.31;;;15.08;53.65
36304;BME280;22335;49.800;8.596;2022-11-06T11:21:26;100355.38;;;15.13;53.68
36304;BME280;22335;49.800;8.596;2022-11-06T11:28:28;100342.50;;;15.31;53.50
36304;BME280;22335;49.800;8.596;2022-11-06T11:35:20;100320.94;;;15.41;53.25
36304;BME280;22335;49.800;8.596;2022-11-06T11:42:26;100311.56;;;15.51;53.15
36304;BME280;22335;49.800;8.596;2022-11-06T11:49:25;100308.19;;;15.63;52.78
36304;BME280;22335;49.800;8.596;2022-11-06T11:56:18;100272.03;;;15.73;53.06
36304;BME280;22335;49.800;8.596;2022-11-06T12:03:27;100243.31;;;15.65;52.68
36304;BME280;22335;49.800;8.596;2022-11-06T12:10:21;100231.31;;;15.44;52.80
36304;BME280;22335;49.800;8.596;2022-11-06T12:17:18;100235.38;;;15.55;52.86
36304;BME280;22335;49.800;8.596;2022-11-06T12:24:09;100199.69;;;15.50;52.57
36304;BME280;22335;49.800;8.596;2022-11-06T12:31:02;100196.63;;;15.69;52.51
36304;BME280;22335;49.800;8.596;2022-11-06T12:37:59;100190.75;;;15.97;52.67
36304;BME280;22335;49.800;8.596;2022-11-06T12:44:55;100185.38;;;16.18;52.30
36304;BME280;22335;49.800;8.596;2022-11-06T12:51:52;100177.19;;;16.39;52.57
36304;BME280;22335;49.800;8.596;2022-11-06T12:59:00;100139.34;;;16.39;52.16
36304;BME280;22335;49.800;8.596;2022-11-06T13:06:06;100136.72;;;16.43;52.33
36304;BME280;22335;49.800;8.596;2022-11-06T13:13:09;100120.66;;;16.45;52.25
36304;BME280;22335;49.800;8.596;2022-11-06T13:20:24;100126.34;;;16.40;52.36
36304;BME280;22335;49.800;8.596;2022-11-06T13:27:24;100112.16;;;16.50;52.25
36304;BME280;22335;49.800;8.596;2022-11-06T13:34:17;100139.56;;;16.64;51.97
36304;BME280;22335;49.800;8.596;2022-11-06T13:41:11;100118.75;;;16.66;52.18
36304;BME280;22335;49.800;8.596;2022-11-06T13:48:08;100088.22;;;16.63;51.86
36304;BME280;22335;49.800;8.596;2022-11-06T13:55:08;100107.06;;;16.90;51.86
36304;BME280;22335;49.800;8.596;2022-11-06T14:02:12;100055.56;;;16.65;51.84
36304;BME280;22335;49.800;8.596;2022-11-06T14:09:15;100064.59;;;16.74;51.66
36304;BME280;22335;49.800;8.596;2022-11-06T14:16:29;100083.44;;;16.72;51.87
36304;BME280;22335;49.800;8.596;2022-11-06T14:23:50;100091.81;;;16.63;51.67
36304;BME280;22335;49.800;8.596;2022-11-06T14:30:39;100094.13;;;16.52;51.33
36304;BME280;22335;49.800;8.596;2022-11-06T14:37:47;100090.38;;;16.57;51.26
36304;BME280;22335;49.800;8.596;2022-11-06T14:44:45;100081.69;;;16.76;51.47
36304;BME280;22335;49.800;8.596;2022-11-06T14:51:32;100077.91;;;16.80;51.13
36304;BME280;22335;49.800;8.596;2022-11-06T14:58:19;100080.06;;;16.96;51.46
36304;BME280;22335;49.800;8.596;2022-11-06T15:05:14;100070.38;;;16.90;51.49
36304;BME280;22335;49.800;8.596;2022-11-06T15:12:03;100076.97;;;16.97;51.28
36304;BME280;22335;49.800;8.596;2022-11-06T15:18:50;100053.97;;;17.05;51.13
36304;BME280;22335;49.800;8.596;2022-11-06T15:25:44;100030.81;;;16.98;51.14
36304;BME280;22335;49.800;8.596;2022-11-06T15:32:39;100043.47;;;16.99;50.87
36304;BME280;22335;49.800;8.596;2022-11-06T15:39:31;100031.63;;;16.98;50.85
36304;BME280;22335;49.800;8.596;2022-11-06T15:46:26;100027.50;;;17.04;50.77
36304;BME280;22335;49.800;8.596;2022-11-06T15:53:20;100027.50;;;17.04;50.66
36304;BME280;22335;49.800;8.596;2022-11-06T16:00:08;100026.09;;;16.98;50.58
36304;BME280;22335;49.800;8.596;2022-11-06T16:07:03;100024.81;;;16.96;50.29
36304;BME280;22335;49.800;8.596;2022-11-06T16:13:50;100017.44;;;17.00;49.94
36304;BME280;22335;49.800;8.596;2022-11-06T16:20:35;100015.53;;;17.00;49.94
36304;BME280;22335;49.800;8.596;2022-11-06T16:27:25;100013.56;;;17.01;50.00
36304;BME280;22335;49.800;8.596;2022-11-06T16:34:20;99994.84;;;16.86;50.43
36304;BME280;22335;49.800;8.596;2022-11-06T16:41:16;100018.47;;;16.95;50.12
36304;BME280;22335;49.800;8.596;2022-11-06T16:48:27;100031.59;;;17.19;49.59
36304;BME280;22335;49.800;8.596;2022-11-06T16:55:23;100037.25;;;17.23;49.40
36304;BME280;22335;49.800;8.596;2022-11-06T17:02:20;100040.66;;;17.08;49.45
36304;BME280;22335;49.800;8.596;2022-11-06T17:16:15;100058.16;;;16.91;49.84
36304;BME280;22335;49.800;8.596;2022-11-06T17:23:03;100065.03;;;16.85;49.87
36304;BME280;22335;49.800;8.596;2022-11-06T17:29:59;100041.88;;;16.77;50.31
36304;BME280;22335;49.800;8.596;2022-11-06T17:36:46;100033.41;;;16.73;50.17
36304;BME280;22335;49.800;8.596;2022-11-06T17:43:31;100037.63;;;16.50;50.54
36304;BME280;22335;49.800;8.596;2022-11-06T17:50:19;100037.63;;;16.50;50.48
36304;BME280;22335;49.800;8.596;2022-11-06T17:57:06;100029.88;;;16.43;50.56
36304;BME280;22335;49.800;8.596;2022-11-06T18:03:52;99953.94;;;15.86;50.54
36304;BME280;22335;49.800;8.596;2022-11-06T18:10:40;100001.91;;;16.24;50.66
36304;BME280;22335;49.800;8.596;2022-11-06T18:17:26;100017.47;;;15.99;50.94
36304;BME280;22335;49.800;8.596;2022-11-06T18:24:11;100021.81;;;15.70;51.31
36304;BME280;22335;49.800;8.596;2022-11-06T18:30:59;100018.00;;;15.19;51.80
36304;BME280;22335;49.800;8.596;2022-11-06T18:37:45;100051.06;;;15.10;52.19
36304;BME280;22335;49.800;8.596;2022-11-06T18:44:30;100046.84;;;14.78;52.50
36304;BME280;22335;49.800;8.596;2022-11-06T18:51:26;100054.25;;;14.51;53.04
36304;BME280;22335;49.800;8.596;2022-11-06T18:58:16;100083.50;;;14.39;53.15
36304;BME280;22335;49.800;8.596;2022-11-06T19:05:02;100068.56;;;14.22;53.36
36304;BME280;22335;49.800;8.596;2022-11-06T19:11:51;100064.81;;;14.10;53.68
36304;BME280;22335;49.800;8.596;2022-11-06T19:18:38;100058.09;;;13.93;53.74
36304;BME280;22335;49.800;8.596;2022-11-06T19:25:24;100074.41;;;13.90;54.04
36304;BME280;22335;49.800;8.596;2022-11-06T19:32:12;100098.97;;;13.86;54.20
36304;BME280;22335;49.800;8.596;2022-11-06T19:38:58;100106.19;;;13.73;54.19
36304;BME280;22335;49.800;8.596;2022-11-06T19:45:44;100121.88;;;13.73;54.28
36304;BME280;22335;49.800;8.596;2022-11-06T19:52:32;100115.97;;;13.66;54.39
36304;BME280;22335;49.800;8.596;2022-11-06T19:59:25;100113.06;;;13.62;54.59
36304;BME280;22335;49.800;8.596;2022-11-06T20:06:11;100105.75;;;13.57;54.48
36304;BME280;22335;49.800;8.596;2022-11-06T20:13:00;100092.28;;;13.47;54.85
36304;BME280;22335;49.800;8.596;2022-11-06T20:19:45;100106.75;;;13.39;54.67
36304;BME280;22335;49.800;8.596;2022-11-06T20:26:31;100101.63;;;13.46;54.82
36304;BME280;22335;49.800;8.596;2022-11-06T20:33:19;100098.81;;;13.37;54.93
36304;BME280;22335;49.800;8.596;2022-11-06T20:40:06;100108.81;;;13.33;54.88
36304;BME280;22335;49.800;8.596;2022-11-06T20:46:53;100134.34;;;13.34;54.79
36304;BME280;22335;49.800;8.596;2022-11-06T20:53:41;100108.25;;;13.09;55.10
36304;BME280;22335;49.800;8.596;2022-11-06T21:00:27;100145.53;;;13.24;55.05
36304;BME280;22335;49.800;8.596;2022-11-06T21:07:12;100161.94;;;13.29;54.93
36304;BME280;22335;49.800;8.596;2022-11-06T21:14:01;100111.88;;;12.96;54.91
36304;BME280;22335;49.800;8.596;2022-11-06T21:20:46;100171.44;;;13.45;54.89
36304;BME280;22335;49.800;8.596;2022-11-06T21:27:32;100181.63;;;13.45;54.90
36304;BME280;22335;49.800;8.596;2022-11-06T21:34:20;100177.19;;;13.35;55.14
36304;BME280;22335;49.800;8.596;2022-11-06T21:41:06;100147.69;;;13.13;55.39
36304;BME280;22335;49.800;8.596;2022-11-06T21:47:52;100148.53;;;13.13;55.14
36304;BME280;22335;49.800;8.596;2022-11-06T21:54:40;100197.31;;;13.44;55.43
36304;BME280;22335;49.800;8.596;2022-11-06T22:01:39;100184.06;;;13.46;55.34
36304;BME280;22335;49.800;8.596;2022-11-06T22:08:24;100207.00;;;13.64;54.62
36304;BME280;22335;49.800;8.596;2022-11-06T22:15:13;100201.66;;;13.45;55.23
36304;BME280;22335;49.800;8.596;2022-11-06T22:21:59;100203.41;;;13.41;55.52
36304;BME280;22335;49.800;8.596;2022-11-06T22:28:44;100224.16;;;13.47;55.55
36304;BME280;22335;49.800;8.596;2022-11-06T22:35:32;100208.91;;;13.41;55.84
36304;BME280;22335;49.800;8.596;2022-11-06T22:42:18;100200.97;;;13.40;55.84
36304;BME280;22335;49.800;8.596;2022-11-06T22:49:04;100178.31;;;13.20;56.06
36304;BME280;22335;49.800;8.596;2022-11-06T22:55:56;100200.25;;;13.34;56.39
36304;BME280;22335;49.800;8.596;2022-11-06T23:02:42;100221.00;;;13.40;56.21
36304;BME280;22335;49.800;8.596;2022-11-06T23:09:28;100231.16;;;13.53;56.37
36304;BME280;22335;49.800;8.596;2022-11-06T23:16:18;100233.16;;;13.61;56.23
36304;BME280;22335;49.800;8.596;2022-11-06T23:23:24;100233.97;;;13.62;56.31
36304;BME280;22335;49.800;8.596;2022-11-06T23:30:12;100231.09;;;13.67;56.20
36304;BME280;22335;49.800;8.596;2022-11-06T23:37:00;100212.13;;;13.57;56.39
36304;BME280;22335;49.800;8.596;2022-11-06T23:43:48;100235.47;;;13.68;56.60
36304;BME280;22335;49.800;8.596;2022-11-06T23:50:34;100220.84;;;13.59;56.36
36304;BME280;22335;49.800;8.596;2022-11-06T23:57:22;100236.28;;;13.69;56.53
